YML weather

Charlevoix Airport
Charlevoix, Quebec, Canada

Public forecast

Using degrees Celsius for public forecast. Weather courtesy of forecast.io.

METAR (pilot weather report)

Closest report is CFB Bagotville, 53.9 nm (99.8 km) NW. Retrieved 2019/05/26 16:00 UTC (57 minutes ago):

CYBG 261600Z 30007KT 25SM BKN035 19/13 A2968 RMK SC6 CU ASOCTD SLP053

TAF (pilot weather forecast)

Forecast is more than 12 hours old.

Retrieved 2018/06/10 18:00 UTC (12 months ago):

TAF CYML 101730Z 1018/1106 12005KT P6SM FEW060 FM102100 14006KT P6SM SCT080 BECMG 1021/1023 VRB03KT RMK NXT FCST BY 110000Z